Time;durP1;ratioP1;P1;durP2;ratioP2;P2;SDS_P1;SDS_P2;PMS_P1;PMS_P2;Temp;Humidity;BMP_temperature;BMP_pressure;BME280_temperature;BME280_humidity;BME280_pressure;Samples;Min_cycle;Max_cycle;Signal;HPM_P1;HPM_P2
2022/10/10 00:00:50;;;;;;;3.80;1.80;;;;;;;19.21;44.20;101408.28;5061389;28;20038;-65
2022/10/10 00:03:16;;;;;;;4.15;1.75;;;;;;;19.18;44.33;101403.25;5061208;28;20024;-64
2022/10/10 00:05:41;;;;;;;3.80;1.88;;;;;;;19.09;44.17;101396.03;5063285;28;20032;-65
2022/10/10 00:08:07;;;;;;;4.43;1.92;;;;;;;19.16;44.59;101406.97;5065154;28;20055;-65
2022/10/10 00:10:32;;;;;;;3.75;1.80;;;;;;;19.18;44.55;101411.19;5065157;28;20040;-65
2022/10/10 00:12:57;;;;;;;3.58;1.92;;;;;;;19.17;44.50;101409.50;5064811;28;20032;-64
2022/10/10 00:15:23;;;;;;;4.30;1.92;;;;;;;19.13;44.46;101394.81;5064902;28;20036;-65
2022/10/10 00:17:48;;;;;;;4.85;1.90;;;;;;;19.15;44.41;101397.34;5065126;28;20772;-67
2022/10/10 00:20:16;;;;;;;4.45;1.92;;;;;;;19.09;44.34;101387.25;5064685;28;20039;-66
2022/10/10 00:22:42;;;;;;;4.13;2.00;;;;;;;19.05;44.24;101381.38;5064709;28;20475;-65
2022/10/10 00:25:09;;;;;;;3.78;1.95;;;;;;;19.04;44.00;101379.69;5064735;28;20044;-64
2022/10/10 00:27:36;;;;;;;5.53;2.08;;;;;;;19.07;44.27;101383.91;5064115;28;20044;-65
2022/10/10 00:30:02;;;;;;;4.00;1.90;;;;;;;19.07;44.40;101386.53;5064632;28;20621;-65
2022/10/10 00:32:27;;;;;;;3.88;1.80;;;;;;;19.09;44.08;101393.41;5064574;28;20043;-65
2022/10/10 00:34:53;;;;;;;6.03;1.90;;;;;;;19.11;44.24;101395.94;5064743;28;20032;-64
2022/10/10 00:37:18;;;;;;;4.40;1.80;;;;;;;19.02;44.37;101378.97;5064425;28;20352;-65
2022/10/10 00:39:43;;;;;;;5.30;2.20;;;;;;;19.01;44.11;101380.78;5064623;28;20024;-66
2022/10/10 00:42:11;;;;;;;4.07;2.07;;;;;;;19.03;44.39;101378.00;5064750;28;20036;-66
2022/10/10 00:44:39;;;;;;;3.30;1.92;;;;;;;19.02;43.91;101379.78;5064365;28;20433;-65
2022/10/10 00:47:04;;;;;;;4.43;2.10;;;;;;;19.05;44.23;101378.72;5064414;28;20059;-67
2022/10/10 00:49:30;;;;;;;3.65;1.85;;;;;;;18.96;44.02;101366.22;5064343;28;20464;-65
2022/10/10 00:51:58;;;;;;;4.78;1.90;;;;;;;18.98;44.31;101372.25;5064294;28;20033;-67
2022/10/10 00:54:26;;;;;;;4.72;1.98;;;;;;;18.99;43.91;101373.91;5064496;28;20154;-66
2022/10/10 00:56:58;;;;;;;4.88;2.20;;;;;;;18.98;44.06;101369.63;5064312;28;20033;-64
2022/10/10 00:59:25;;;;;;;3.45;1.80;;;;;;;18.96;44.11;101371.50;5064103;28;20481;-67
2022/10/10 01:01:50;;;;;;;4.25;2.08;;;;;;;18.97;43.98;101374.03;5064346;28;20028;-65
2022/10/10 01:04:35;;;;;;;5.45;2.40;;;;;;;18.95;44.01;101364.56;5063770;28;20028;-66
2022/10/10 01:07:04;;;;;;;4.90;2.28;;;;;;;18.95;44.14;101357.47;5062353;28;20032;-66
2022/10/10 01:09:30;;;;;;;3.97;2.03;;;;;;;18.96;44.07;101358.31;5063854;28;20032;-68
2022/10/10 01:12:34;;;;;;;3.80;2.00;;;;;;;18.92;43.93;101355.06;5063805;28;20056;-65
2022/10/10 01:15:41;;;;;;;4.82;1.95;;;;;;;18.98;44.07;101362.53;5041197;28;20040;-65
2022/10/10 01:18:32;;;;;;;4.25;1.80;;;;;;;18.97;44.11;101360.00;5040522;28;20033;-65
2022/10/10 01:21:17;;;;;;;4.60;2.22;;;;;;;18.94;44.02;101362.88;5062334;28;20591;-65
2022/10/10 01:24:18;;;;;;;3.92;1.88;;;;;;;18.96;43.86;101360.94;5063497;28;20032;-66
2022/10/10 01:27:06;;;;;;;3.90;2.00;;;;;;;18.87;43.78;101348.44;5063772;28;20060;-67
2022/10/10 01:29:41;;;;;;;3.45;1.90;;;;;;;18.93;44.13;101353.25;5063831;28;20035;-64
2022/10/10 01:32:14;;;;;;;4.55;2.20;;;;;;;18.94;44.07;101362.88;5063887;28;20025;-66
2022/10/10 01:35:10;;;;;;;4.50;2.25;;;;;;;18.90;43.92;101354.34;5063372;28;20029;-66
2022/10/10 01:37:58;;;;;;;4.05;2.25;;;;;;;18.82;44.09;101338.22;5063271;28;20085;-65
2022/10/10 01:40:41;;;;;;;4.40;2.08;;;;;;;18.89;44.19;101349.19;5063160;28;20036;-65
2022/10/10 01:43:08;;;;;;;4.70;2.35;;;;;;;18.85;44.10;101344.13;5063470;28;20023;-68
2022/10/10 01:45:33;;;;;;;3.92;2.17;;;;;;;18.90;43.76;101350.84;5063357;28;20039;-67
2022/10/10 01:48:02;;;;;;;3.85;2.20;;;;;;;18.83;43.89;101334.59;5063067;28;20036;-68
2022/10/10 01:50:32;;;;;;;4.55;2.13;;;;;;;18.87;43.92;101344.00;5063436;28;20024;-67
2022/10/10 01:53:09;;;;;;;5.78;2.40;;;;;;;18.81;44.13;101337.34;5063574;28;20035;-65
2022/10/10 01:56:06;;;;;;;4.00;2.00;;;;;;;18.86;43.98;101344.97;5063605;28;20052;-66
2022/10/10 01:59:09;;;;;;;4.10;2.15;;;;;;;18.84;44.04;101339.78;5063510;28;20040;-68
2022/10/10 02:02:07;;;;;;;3.90;1.92;;;;;;;18.78;43.91;101320.91;5062967;28;20456;-65
2022/10/10 02:04:55;;;;;;;3.95;2.17;;;;;;;18.84;43.86;101336.31;5063292;28;20032;-64
2022/10/10 02:07:27;;;;;;;4.25;1.95;;;;;;;18.79;43.82;101325.25;5061437;28;20063;-66
2022/10/10 02:09:54;;;;;;;4.63;2.03;;;;;;;18.72;43.88;101316.09;5062786;28;20075;-65
2022/10/10 02:12:22;;;;;;;5.03;2.20;;;;;;;18.75;44.06;101319.34;5062860;28;20372;-65
2022/10/10 02:14:52;;;;;;;4.15;2.08;;;;;;;18.75;43.94;101313.22;5063141;28;20536;-64
2022/10/10 02:17:20;;;;;;;3.72;2.15;;;;;;;18.74;43.83;101309.75;5062914;28;20028;-65
2022/10/10 02:19:51;;;;;;;4.95;2.10;;;;;;;18.80;43.79;101313.72;5062767;28;20075;-67
2022/10/10 02:22:18;;;;;;;3.80;2.10;;;;;;;18.79;43.83;101319.97;5062852;28;20440;-67
2022/10/10 02:24:43;;;;;;;4.15;2.10;;;;;;;18.72;43.86;101306.38;5062324;28;20071;-64
2022/10/10 02:27:17;;;;;;;3.40;1.80;;;;;;;18.79;43.69;101312.88;5062093;28;20067;-63
2022/10/10 02:29:44;;;;;;;4.72;2.10;;;;;;;18.77;43.64;101314.81;5062437;28;20485;-64
2022/10/10 02:32:16;;;;;;;4.75;2.42;;;;;;;18.78;43.60;101310.34;5062549;28;20054;-64
2022/10/10 02:34:47;;;;;;;5.47;2.28;;;;;;;18.70;43.58;101295.09;5062214;28;20667;-65
2022/10/10 02:37:15;;;;;;;4.57;2.67;;;;;;;18.76;43.64;101313.09;5062285;28;20028;-65
2022/10/10 02:39:45;;;;;;;5.00;2.25;;;;;;;18.71;43.93;101298.56;5062483;28;20036;-64
2022/10/10 02:42:15;;;;;;;3.58;1.85;;;;;;;18.67;43.82;101288.28;5062261;28;20036;-65
2022/10/10 02:44:41;;;;;;;5.20;2.30;;;;;;;18.74;43.81;101304.47;5062130;28;20484;-64
2022/10/10 02:47:06;;;;;;;4.75;2.50;;;;;;;18.74;43.66;101295.69;5061890;28;20809;-64
2022/10/10 02:49:33;;;;;;;3.80;2.00;;;;;;;18.65;43.81;101279.59;5061996;28;20601;-63
2022/10/10 02:51:59;;;;;;;4.70;2.20;;;;;;;18.64;43.86;101280.59;5061748;28;20047;-69
2022/10/10 02:54:25;;;;;;;5.05;2.15;;;;;;;18.67;43.53;101283.00;5060582;28;20357;-67
2022/10/10 02:56:51;;;;;;;4.40;2.20;;;;;;;18.69;43.66;101288.13;5062021;28;20040;-65
2022/10/10 02:59:17;;;;;;;5.72;2.17;;;;;;;18.67;43.69;101283.00;5061931;28;20036;-66
2022/10/10 03:01:43;;;;;;;3.83;2.08;;;;;;;18.47;43.92;101252.00;5061504;28;20195;-65
2022/10/10 03:04:08;;;;;;;3.90;2.00;;;;;;;18.61;43.56;101267.63;5061727;28;20116;-67
2022/10/10 03:06:33;;;;;;;4.63;2.17;;;;;;;18.72;43.78;101279.13;5061423;28;20067;-65
2022/10/10 03:08:58;;;;;;;4.97;2.25;;;;;;;18.66;43.89;101273.38;5061847;28;20037;-67
2022/10/10 03:11:24;;;;;;;4.72;2.10;;;;;;;18.62;43.80;101264.00;5061759;28;20040;-65
2022/10/10 03:13:49;;;;;;;3.65;2.00;;;;;;;18.70;43.69;101275.78;5062036;28;20055;-65
2022/10/10 03:16:14;;;;;;;4.60;2.07;;;;;;;18.61;43.57;101262.34;5061519;28;20469;-66
2022/10/10 03:18:39;;;;;;;4.10;2.03;;;;;;;18.64;43.78;101270.03;5061729;28;20265;-65
2022/10/10 03:21:05;;;;;;;3.92;2.15;;;;;;;18.66;43.65;101275.19;5061255;28;20081;-66
2022/10/10 03:23:31;;;;;;;4.15;2.10;;;;;;;18.65;43.88;101265.56;5061740;28;20484;-64
2022/10/10 03:25:56;;;;;;;4.38;2.30;;;;;;;18.58;43.66;101256.44;5061516;28;20035;-65
2022/10/10 03:28:22;;;;;;;3.78;2.17;;;;;;;18.62;43.49;101264.00;5061292;28;20045;-64
2022/10/10 03:30:48;;;;;;;4.68;2.13;;;;;;;18.58;43.66;101259.06;5061314;28;20074;-66
2022/10/10 03:33:13;;;;;;;3.58;1.88;;;;;;;18.62;43.63;101264.00;5061461;28;20029;-64
2022/10/10 03:35:39;;;;;;;4.22;2.00;;;;;;;18.64;43.77;101270.03;5060879;28;20020;-65
2022/10/10 03:38:05;;;;;;;3.80;1.95;;;;;;;18.56;43.67;101258.34;5061681;28;20033;-65
2022/10/10 03:40:31;;;;;;;3.83;1.90;;;;;;;18.57;43.49;101260.88;5060713;28;20040;-65
2022/10/10 03:42:56;;;;;;;4.60;2.10;;;;;;;18.56;43.59;101266.28;5061041;28;20365;-65
2022/10/10 03:45:22;;;;;;;4.82;1.95;;;;;;;18.60;43.52;101270.38;5061103;28;20052;-66
2022/10/10 03:47:47;;;;;;;4.10;2.13;;;;;;;18.59;43.87;101269.50;5061424;28;20036;-64
2022/10/10 03:50:12;;;;;;;4.03;2.03;;;;;;;18.54;43.62;101263.75;5061173;28;20032;-66
2022/10/10 03:52:38;;;;;;;5.13;2.00;;;;;;;18.58;44.11;101272.25;5060869;28;20028;-64
2022/10/10 03:55:04;;;;;;;4.45;2.40;;;;;;;18.51;43.79;101261.34;5061097;28;20112;-65
2022/10/10 03:57:29;;;;;;;3.40;1.80;;;;;;;18.54;43.64;101271.66;5060871;28;20035;-65
2022/10/10 03:59:54;;;;;;;5.33;2.00;;;;;;;18.46;43.49;101256.41;5061178;28;20380;-65
2022/10/10 04:02:19;;;;;;;3.83;1.97;;;;;;;18.51;43.71;101263.97;5060801;28;20260;-64
2022/10/10 04:04:45;;;;;;;3.93;2.00;;;;;;;18.53;43.75;101267.34;5060992;28;20276;-65
2022/10/10 04:07:10;;;;;;;3.97;1.92;;;;;;;18.58;43.77;101274.91;5060742;28;20265;-65
2022/10/10 04:09:35;;;;;;;4.30;2.23;;;;;;;18.57;43.62;101276.72;5061536;28;20024;-66
2022/10/10 04:12:01;;;;;;;3.88;1.92;;;;;;;18.58;43.86;101269.63;5060553;28;20289;-64
2022/10/10 04:14:26;;;;;;;4.63;2.20;;;;;;;18.50;43.87;101259.69;5061082;28;20048;-66
2022/10/10 04:16:52;;;;;;;4.47;2.08;;;;;;;18.51;43.80;101252.59;5060804;28;20086;-64
2022/10/10 04:19:17;;;;;;;3.80;2.00;;;;;;;18.53;43.84;101259.41;5060990;28;20416;-64
2022/10/10 04:21:43;;;;;;;4.32;1.90;;;;;;;18.53;43.80;101261.22;5060736;28;20434;-66
2022/10/10 04:24:09;;;;;;;3.60;1.88;;;;;;;18.54;43.95;101274.31;5060894;28;20415;-64
2022/10/10 04:26:34;;;;;;;4.18;1.95;;;;;;;18.56;43.73;101267.09;5060444;28;20541;-65
2022/10/10 04:29:00;;;;;;;3.70;1.80;;;;;;;18.56;43.62;101266.28;5060786;28;20392;-64
2022/10/10 04:31:25;;;;;;;3.75;2.10;;;;;;;18.46;43.56;101259.06;5060883;28;20032;-65
2022/10/10 04:33:51;;;;;;;3.17;1.80;;;;;;;18.48;43.75;101257.16;5060918;28;20683;-65
2022/10/10 04:36:16;;;;;;;3.70;1.80;;;;;;;18.49;43.64;101258.00;5060944;28;20047;-65
2022/10/10 04:38:42;;;;;;;4.00;2.13;;;;;;;18.53;43.86;101267.34;5060842;28;20032;-66
2022/10/10 04:41:07;;;;;;;4.70;2.30;;;;;;;18.47;43.55;101258.09;5060874;28;20491;-66
2022/10/10 04:43:33;;;;;;;4.88;2.20;;;;;;;18.49;43.67;101263.28;5060519;28;20194;-65
2022/10/10 04:45:58;;;;;;;4.57;2.17;;;;;;;18.51;43.69;101260.50;5060923;28;20028;-65
2022/10/10 04:48:24;;;;;;;3.95;1.77;;;;;;;18.47;43.64;101252.00;5060700;28;20055;-65
2022/10/10 04:50:53;;;;;;;4.30;1.95;;;;;;;18.48;43.63;101254.53;5062207;28;20037;-65
2022/10/10 04:53:19;;;;;;;4.63;1.90;;;;;;;18.56;43.56;101267.09;5064559;28;20028;-68
2022/10/10 04:55:44;;;;;;;4.93;2.10;;;;;;;18.48;43.66;101251.00;5064055;28;20586;-66
2022/10/10 04:58:09;;;;;;;3.60;2.10;;;;;;;18.52;43.82;101260.41;5064551;28;20077;-65
2022/10/10 05:00:36;;;;;;;4.03;2.03;;;;;;;18.46;43.47;101252.94;5064384;28;20037;-67
2022/10/10 05:03:01;;;;;;;4.10;1.90;;;;;;;18.56;43.61;101267.09;5064081;28;20658;-65
2022/10/10 05:05:27;;;;;;;3.90;2.13;;;;;;;18.57;43.53;101267.97;5064059;28;20556;-67
2022/10/10 05:07:52;;;;;;;3.53;2.00;;;;;;;18.55;43.36;101265.44;5064229;28;20033;-68
2022/10/10 05:10:17;;;;;;;3.95;2.10;;;;;;;18.52;43.32;101251.63;5064066;28;20036;-64
2022/10/10 05:12:42;;;;;;;4.88;1.90;;;;;;;18.47;43.34;101247.53;5064296;28;20350;-66
2022/10/10 05:15:08;;;;;;;4.28;2.15;;;;;;;18.53;43.55;101258.59;5064230;28;20044;-65
2022/10/10 05:17:33;;;;;;;3.30;1.70;;;;;;;18.37;43.31;101225.44;5063860;28;20074;-66
2022/10/10 05:19:59;;;;;;;3.50;1.90;;;;;;;18.44;43.38;101242.50;5063727;28;20032;-65
2022/10/10 05:22:24;;;;;;;4.40;2.20;;;;;;;18.44;43.29;101239.03;5063832;28;20452;-65
2022/10/10 05:24:49;;;;;;;4.07;2.20;;;;;;;18.52;43.13;101254.25;5063781;28;20028;-66
2022/10/10 05:27:14;;;;;;;5.50;2.38;;;;;;;18.47;43.36;101247.53;5063840;28;20350;-67
2022/10/10 05:29:40;;;;;;;5.43;2.72;;;;;;;18.56;43.68;101258.34;5063817;28;20037;-65
2022/10/10 05:32:05;;;;;;;5.03;2.60;;;;;;;18.55;43.48;101254.03;5064095;28;20433;-67
2022/10/10 05:34:30;;;;;;;4.15;2.25;;;;;;;18.61;43.46;101258.84;5063640;28;20280;-65
2022/10/10 05:36:55;;;;;;;5.57;2.47;;;;;;;18.61;43.37;101258.84;5063900;28;20032;-64
2022/10/10 05:39:21;;;;;;;4.40;2.08;;;;;;;18.66;43.44;101261.97;5063512;28;20642;-65
2022/10/10 05:41:47;;;;;;;5.45;2.13;;;;;;;18.64;43.54;101248.91;5063672;28;20035;-66
2022/10/10 05:44:12;;;;;;;5.03;1.95;;;;;;;18.65;43.52;101249.72;5063615;28;20380;-68
2022/10/10 05:46:37;;;;;;;4.30;2.05;;;;;;;18.71;43.61;101259.81;5063495;28;20029;-64
2022/10/10 05:49:03;;;;;;;4.63;2.27;;;;;;;18.74;43.78;101256.09;5063539;28;20105;-66
2022/10/10 05:51:28;;;;;;;4.10;1.90;;;;;;;18.81;43.83;101260.78;5063261;28;20342;-65
2022/10/10 05:53:53;;;;;;;3.72;2.10;;;;;;;18.83;43.72;101261.53;5063236;28;20381;-65
2022/10/10 05:56:19;;;;;;;4.00;1.90;;;;;;;18.81;43.60;101250.22;5063199;28;20032;-66
2022/10/10 05:58:44;;;;;;;4.30;2.00;;;;;;;18.84;43.77;101252.66;5063379;28;20047;-64
2022/10/10 06:01:10;;;;;;;4.28;1.98;;;;;;;18.86;43.66;101252.53;5063024;28;20358;-66
2022/10/10 06:03:36;;;;;;;4.13;2.00;;;;;;;18.95;43.89;101264.19;5062195;28;20427;-66
2022/10/10 06:06:02;;;;;;;4.18;1.90;;;;;;;18.92;43.76;101259.97;5062962;28;20037;-66
2022/10/10 06:08:30;;;;;;;3.83;1.85;;;;;;;18.95;43.33;101269.47;5062847;28;20024;-65
2022/10/10 06:11:00;;;;;;;4.38;1.83;;;;;;;18.97;43.56;101264.91;5063059;28;20036;-62
2022/10/10 06:13:26;;;;;;;3.40;1.77;;;;;;;19.02;43.35;101268.03;5063123;28;20477;-64
2022/10/10 06:15:51;;;;;;;4.00;1.93;;;;;;;19.00;43.37;101262.03;5063022;28;20073;-63
2022/10/10 06:18:16;;;;;;;4.32;2.10;;;;;;;19.01;43.62;101258.44;5062885;28;20933;-64
2022/10/10 06:20:42;;;;;;;4.85;2.17;;;;;;;18.96;43.53;101250.88;5062545;28;20040;-64
2022/10/10 06:23:07;;;;;;;7.07;1.90;;;;;;;19.04;43.86;101260.81;5061109;28;20071;-64
2022/10/10 06:25:34;;;;;;;5.95;1.88;;;;;;;19.13;43.65;101275.94;5062551;28;20098;-70
2022/10/10 06:28:00;;;;;;;3.50;1.90;;;;;;;19.08;43.80;101264.91;5062288;28;20384;-64
2022/10/10 06:30:26;;;;;;;5.55;1.90;;;;;;;19.14;43.63;101277.63;5062453;28;20032;-66
2022/10/10 06:32:51;;;;;;;4.50;1.92;;;;;;;19.16;44.01;101281.00;5062600;28;20029;-64
2022/10/10 06:35:17;;;;;;;4.78;2.15;;;;;;;19.17;43.96;101276.56;5062214;28;20068;-64
2022/10/10 06:37:42;;;;;;;3.83;2.00;;;;;;;19.17;43.96;101276.56;5060714;28;20475;-63
2022/10/10 06:40:08;;;;;;;3.20;1.60;;;;;;;19.18;44.09;101280.88;5062083;28;20452;-64
2022/10/10 06:42:33;;;;;;;5.97;2.00;;;;;;;19.14;43.99;101276.81;5062270;28;20394;-65
2022/10/10 06:44:58;;;;;;;5.18;1.90;;;;;;;19.18;43.92;101281.72;5061934;28;20725;-64
2022/10/10 06:47:24;;;;;;;5.40;2.03;;;;;;;19.07;44.30;101275.59;5060675;28;20044;-67
2022/10/10 06:49:49;;;;;;;3.85;2.17;;;;;;;19.02;44.47;101282.06;5061223;28;20020;-62
2022/10/10 06:52:14;;;;;;;4.82;2.00;;;;;;;19.08;44.74;101288.69;5060687;28;20047;-64
2022/10/10 06:54:40;;;;;;;5.53;1.90;;;;;;;19.08;44.76;101291.31;5060691;28;20372;-63
2022/10/10 06:57:05;;;;;;;4.20;2.10;;;;;;;19.13;44.58;101290.97;5062186;28;20034;-64
2022/10/10 06:59:30;;;;;;;4.63;2.00;;;;;;;19.15;44.79;101295.19;5060787;28;20477;-63
2022/10/10 07:01:56;;;;;;;4.82;2.15;;;;;;;18.97;44.83;101257.81;5062000;28;20089;-64
2022/10/10 07:04:21;;;;;;;4.50;2.03;;;;;;;19.12;44.73;101289.28;5061622;28;20480;-63
2022/10/10 07:06:46;;;;;;;4.00;1.60;;;;;;;19.22;44.80;101300.81;5061712;28;20028;-64
2022/10/10 07:09:12;;;;;;;3.60;1.80;;;;;;;19.24;44.72;101298.06;5061485;28;20589;-63
2022/10/10 07:11:38;;;;;;;4.78;1.83;;;;;;;19.17;44.97;101295.06;5062032;28;20314;-64
2022/10/10 07:14:03;;;;;;;4.35;1.77;;;;;;;19.18;44.88;101287.00;5061439;28;20039;-63
2022/10/10 07:16:28;;;;;;;4.55;2.03;;;;;;;19.16;44.77;101285.44;5061697;28;20032;-65
2022/10/10 07:18:54;;;;;;;4.57;2.17;;;;;;;19.25;44.70;101295.28;5061216;28;20056;-64
2022/10/10 07:21:19;;;;;;;4.07;2.17;;;;;;;19.23;45.03;101296.34;5060197;28;20036;-66
2022/10/10 07:23:44;;;;;;;5.10;1.70;;;;;;;19.27;44.84;101303.09;5059693;28;20040;-71
2022/10/10 07:26:12;;;;;;;4.33;1.97;;;;;;;19.27;44.94;101303.09;5060767;28;20032;-72
2022/10/10 07:28:38;;;;;;;5.88;2.03;;;;;;;19.28;45.10;101307.41;5059499;28;20269;-72
2022/10/10 07:31:07;;;;;;;4.30;1.90;;;;;;;19.28;44.93;101302.13;5060229;28;20373;-68
2022/10/10 07:33:38;;;;;;;7.47;2.05;;;;;;;19.36;44.86;101305.84;5061170;28;20040;-71
2022/10/10 07:36:05;;;;;;;5.05;2.00;;;;;;;19.42;44.77;101306.31;5060177;28;20533;-69
2022/10/10 07:38:31;;;;;;;4.82;2.05;;;;;;;19.46;44.83;101300.66;5061093;28;20032;-71
2022/10/10 07:40:56;;;;;;;5.05;1.92;;;;;;;19.53;44.68;101309.78;5060807;28;20037;-67
2022/10/10 07:43:21;;;;;;;3.65;1.80;;;;;;;19.50;44.82;101311.81;5060494;28;20152;-68
2022/10/10 07:45:47;;;;;;;5.68;2.00;;;;;;;19.56;44.39;101325.38;5060591;28;20032;-70
2022/10/10 07:48:12;;;;;;;7.22;2.08;;;;;;;19.57;44.49;101323.59;5060536;28;21010;-71
2022/10/10 07:50:42;;;;;;;6.05;2.25;;;;;;;19.61;44.56;101317.09;5060510;28;20086;-70
2022/10/10 07:53:08;;;;;;;4.55;1.95;;;;;;;19.69;44.53;101320.00;5060607;28;20681;-69
2022/10/10 07:55:34;;;;;;;4.78;2.20;;;;;;;19.71;44.12;101327.75;5058666;28;20028;-70
2022/10/10 07:58:02;;;;;;;5.13;2.33;;;;;;;19.72;44.27;101330.28;5060218;28;20043;-69
2022/10/10 08:00:27;;;;;;;5.35;1.85;;;;;;;19.77;44.27;101329.13;5060256;28;20028;-70
2022/10/10 08:02:53;;;;;;;4.40;2.00;;;;;;;19.77;44.49;101326.47;5060956;28;20035;-69
2022/10/10 08:05:18;;;;;;;4.43;1.90;;;;;;;19.74;44.46;101325.75;5060089;28;20183;-67
2022/10/10 08:07:43;;;;;;;5.50;2.10;;;;;;;19.77;44.94;101329.94;5059187;28;20258;-70
2022/10/10 08:10:09;;;;;;;4.70;2.20;;;;;;;19.82;44.61;101340.16;5059863;28;20769;-64
2022/10/10 08:12:34;;;;;;;5.60;2.40;;;;;;;19.80;44.73;101337.63;5060415;28;20276;-63
2022/10/10 08:14:59;;;;;;;5.70;2.05;;;;;;;19.71;44.94;101328.63;5060509;28;20037;-62
2022/10/10 08:17:25;;;;;;;3.58;1.80;;;;;;;19.72;44.73;101332.94;5060622;28;20170;-65
2022/10/10 08:19:50;;;;;;;4.43;1.77;;;;;;;19.72;44.84;101329.47;5059906;28;20115;-63
2022/10/10 08:22:15;;;;;;;4.50;1.95;;;;;;;19.71;44.98;101327.75;5061123;28;20101;-63
2022/10/10 08:24:40;;;;;;;3.85;1.73;;;;;;;19.70;45.12;101320.81;5060701;28;20035;-64
2022/10/10 08:27:06;;;;;;;6.43;1.80;;;;;;;19.71;45.15;101328.63;5063920;28;20044;-62
2022/10/10 08:29:32;;;;;;;6.03;1.83;;;;;;;19.73;45.25;101329.34;5064785;28;20299;-62
2022/10/10 08:31:57;;;;;;;4.63;1.70;;;;;;;19.77;45.01;101340.53;5064895;28;20256;-63
2022/10/10 08:34:22;;;;;;;4.47;1.73;;;;;;;19.75;45.13;101339.78;5064486;28;20056;-63
2022/10/10 08:36:48;;;;;;;6.50;2.20;;;;;;;19.77;45.12;101347.63;5064645;28;20460;-63
2022/10/10 08:39:15;;;;;;;4.32;1.92;;;;;;;19.77;45.23;101350.28;5064759;28;20063;-63
2022/10/10 08:41:59;;;;;;;4.20;1.70;;;;;;;19.75;45.16;101351.19;5063346;28;20025;-64
2022/10/10 08:44:31;;;;;;;4.88;1.70;;;;;;;19.74;45.19;101346.91;5064220;28;20028;-63
2022/10/10 08:47:19;;;;;;;5.32;1.90;;;;;;;19.76;45.22;101349.44;5064489;28;20071;-64
2022/10/10 08:49:50;;;;;;;4.47;1.85;;;;;;;19.72;45.53;101335.56;5064356;28;20028;-62
2022/10/10 08:52:24;;;;;;;5.57;2.05;;;;;;;19.78;45.64;101346.69;5064636;28;20075;-63
2022/10/10 08:54:52;;;;;;;5.88;1.85;;;;;;;19.74;45.55;101343.38;5064572;28;20024;-62
2022/10/10 08:57:32;;;;;;;4.40;1.70;;;;;;;19.78;45.45;101344.03;5064629;28;20120;-62
2022/10/10 09:00:06;;;;;;;4.93;1.75;;;;;;;19.69;45.57;101335.84;5064283;28;20113;-63
2022/10/10 09:02:37;;;;;;;;;;;;;;;19.74;45.64;101341.59;5064333;28;20115;-63
2022/10/10 09:05:03;;;;;;;3.35;1.70;;;;;;;19.76;45.84;101346.81;5063949;28;19917;-63
2022/10/10 09:07:47;;;;;;;4.90;2.00;;;;;;;19.71;45.92;101339.22;5064070;28;20016;-62
2022/10/10 09:10:36;;;;;;;5.00;1.60;;;;;;;19.66;45.79;101330.81;5063831;28;20368;-61
2022/10/10 09:13:18;;;;;;;4.55;1.88;;;;;;;19.71;45.97;101344.50;5064090;28;20835;-63
2022/10/10 09:15:58;;;;;;;6.82;2.00;;;;;;;19.75;46.04;101353.00;5063805;28;20068;-62
2022/10/10 09:19:03;;;;;;;4.25;1.80;;;;;;;19.74;46.05;101351.31;5063733;28;20048;-64
2022/10/10 09:21:33;;;;;;;4.53;1.88;;;;;;;19.74;46.17;101357.47;5056009;28;20054;-63
2022/10/10 09:24:01;;;;;;;5.38;1.70;;;;;;;19.76;46.24;101360.03;5063793;28;20043;-72
2022/10/10 09:26:32;;;;;;;5.20;1.77;;;;;;;19.71;46.02;101357.72;5061683;28;20122;-72
2022/10/10 09:29:42;;;;;;;4.25;1.70;;;;;;;19.54;46.14;101334.44;5063303;28;20468;-71
2022/10/10 09:32:17;;;;;;;5.03;1.77;;;;;;;19.84;46.19;101383.22;5061239;28;20044;-70
2022/10/10 09:35:04;;;;;;;5.50;1.95;;;;;;;19.92;46.15;101380.78;5063080;28;20120;-70
2022/10/10 09:37:36;;;;;;;4.38;1.77;;;;;;;19.95;45.93;101372.63;5067398;28;20078;-72
2022/10/10 09:40:21;;;;;;;4.80;1.70;;;;;;;20.07;46.07;101389.28;5063789;28;20037;-71
2022/10/10 09:42:46;;;;;;;5.15;1.77;;;;;;;20.14;45.84;101384.34;5062753;28;20043;-71
2022/10/10 09:45:18;;;;;;;13.40;2.38;;;;;;;20.16;45.89;101379.78;5062684;28;20479;-68
2022/10/10 09:47:46;;;;;;;5.45;2.00;;;;;;;20.15;45.88;101370.97;5062660;28;20036;-68
2022/10/10 09:50:15;;;;;;;4.03;1.88;;;;;;;20.17;45.90;101373.50;5062909;28;20095;-69
2022/10/10 09:52:42;;;;;;;5.13;1.70;;;;;;;20.20;46.07;101394.41;5061512;28;20376;-75
2022/10/10 09:55:27;;;;;;;4.22;1.80;;;;;;;20.17;45.58;101395.53;5064037;28;20085;-70
2022/10/10 09:57:56;;;;;;;4.65;1.77;;;;;;;20.17;45.88;101397.31;5062376;28;20028;-70
2022/10/10 10:00:31;;;;;;;4.18;1.98;;;;;;;20.14;46.21;101398.44;5062213;28;20036;-71
2022/10/10 10:03:12;;;;;;;4.05;1.80;;;;;;;20.10;46.29;101384.56;5063250;28;20108;-70
2022/10/10 10:05:38;;;;;;;3.97;1.63;;;;;;;20.08;46.42;101393.63;5062260;28;20032;-67
2022/10/10 10:08:04;;;;;;;5.07;1.65;;;;;;;20.16;46.54;101393.84;5062606;28;20028;-69
2022/10/10 10:10:34;;;;;;;5.22;1.85;;;;;;;20.15;45.98;101384.22;5062391;28;20552;-68
2022/10/10 10:12:59;;;;;;;4.32;1.60;;;;;;;20.21;46.08;101404.88;5061498;28;20066;-72
2022/10/10 10:15:28;;;;;;;10.05;1.77;;;;;;;20.13;45.99;101387.97;5062461;28;20060;-69
2022/10/10 10:18:23;;;;;;;4.93;1.85;;;;;;;20.13;46.40;101395.91;5062427;28;20115;-68
2022/10/10 10:20:53;;;;;;;;;;;;;;;20.17;46.56;101408.75;5062618;28;20190;-70
2022/10/10 10:23:55;;;;;;;4.22;1.77;;;;;;;20.21;46.24;101410.19;5061579;28;19913;-69
2022/10/10 10:26:28;;;;;;;4.20;1.90;;;;;;;20.27;46.24;101403.56;5060626;28;20044;-71
2022/10/10 10:28:56;;;;;;;5.35;1.80;;;;;;;20.32;45.99;101404.00;5061709;28;20530;-71
2022/10/10 10:31:52;;;;;;;5.30;1.75;;;;;;;20.32;46.54;101403.19;5061751;28;20663;-68
2022/10/10 10:34:47;;;;;;;5.15;1.60;;;;;;;20.29;46.85;101406.91;5062106;28;20039;-71
2022/10/10 10:37:24;;;;;;;4.03;1.67;;;;;;;20.35;46.33;101409.06;5061587;28;20032;-70
2022/10/10 10:40:08;;;;;;;4.68;1.60;;;;;;;20.40;46.68;101417.44;5061479;28;20032;-71
2022/10/10 10:42:42;;;;;;;7.10;1.63;;;;;;;20.39;46.67;101407.00;5061415;28;20028;-70
2022/10/10 10:45:17;;;;;;;6.35;1.90;;;;;;;20.45;46.59;101414.44;5061922;28;20039;-68
2022/10/10 10:48:20;;;;;;;5.32;2.00;;;;;;;20.42;46.56;101419.97;5061770;28;20464;-68
2022/10/10 10:50:53;;;;;;;5.90;2.00;;;;;;;20.30;46.88;101417.38;5060393;28;20960;-66
2022/10/10 10:53:18;;;;;;;6.80;1.70;;;;;;;20.32;46.78;101429.66;5061684;28;20048;-64
2022/10/10 10:55:54;;;;;;;5.17;1.83;;;;;;;20.21;47.06;101422.56;5062539;28;20461;-67
2022/10/10 10:58:34;;;;;;;5.55;2.00;;;;;;;20.27;47.25;101433.50;5061904;28;20759;-66
2022/10/10 11:01:14;;;;;;;6.68;2.13;;;;;;;20.25;47.59;101429.28;5061932;28;20039;-68
2022/10/10 11:03:39;;;;;;;6.20;2.05;;;;;;;20.19;47.38;101419.22;5059475;28;20036;-69
2022/10/10 11:06:33;;;;;;;5.13;1.90;;;;;;;20.22;47.93;101440.13;5061245;28;20041;-69
2022/10/10 11:09:12;;;;;;;6.00;1.77;;;;;;;20.29;47.55;101444.78;5059918;28;20039;-66
2022/10/10 11:11:48;;;;;;;4.28;1.48;;;;;;;20.37;47.36;101452.13;5060734;28;20032;-63
2022/10/10 11:14:33;;;;;;;4.90;1.50;;;;;;;20.25;47.57;101430.16;5059850;28;20373;-64
2022/10/10 11:17:36;;;;;;;6.88;1.60;;;;;;;20.30;47.45;101450.94;5061316;28;20438;-64
2022/10/10 11:20:18;;;;;;;12.35;1.85;;;;;;;20.23;47.42;101447.94;5059100;28;20102;-64
2022/10/10 11:22:55;;;;;;;6.15;1.67;;;;;;;20.25;47.59;101453.09;5061971;28;20123;-63
2022/10/10 11:25:34;;;;;;;4.47;2.00;;;;;;;20.23;47.63;101452.41;5061469;28;20032;-62
2022/10/10 11:28:07;;;;;;;5.43;1.80;;;;;;;20.19;47.72;101451.81;5061315;28;20047;-65
2022/10/10 11:30:39;;;;;;;3.87;1.60;;;;;;;20.21;48.04;101457.81;5061775;28;20059;-64
2022/10/10 11:33:11;;;;;;;4.97;1.67;;;;;;;20.18;47.86;101451.94;5061710;28;20070;-66
2022/10/10 11:35:44;;;;;;;5.00;1.80;;;;;;;20.19;48.09;101454.47;5061282;28;20139;-64
2022/10/10 11:38:30;;;;;;;6.18;2.05;;;;;;;20.12;48.06;101437.38;5061341;28;20534;-64
2022/10/10 11:41:02;;;;;;;5.18;1.73;;;;;;;20.10;47.69;101432.22;5061197;28;20511;-63